Portada
METAR-TAF:

METAR-TAF

Aeropuertos :

Parque nacional Kruger, Sudáfrica

latitud: 25-23-00S, longitud: 31-06-20E, altitud: 862 m

Observación

El informe se hizo hace 1 hora y 25 minutos, a las 19:00 UTC
Viento 5 kt del sureste
Temperatura 19°C
Humedad 78%
Presión 1023 hPa

METAR: FAKN 261900Z AUTO 13005KT //// // ////// 19/15 Q1023

Hora: 22:25 (20:25 UTC)

Pronóstico

El informe se hizo hace 11 horas y 25 minutos, a las 09:00 UTC
Pronóstico válido del 26 a las 10 UTC al 26 a las 18 UTC
Viento 3 kt con dirección variable
Visibilidad 10 km o más
Cielo nuboso a una altura de 1500 ft
Probabilidad 30% :
Temporalmente
del 26 a las 16 UTC al 26 a las 18 UTC
Visibilidad: 5000 m
Cielo nuboso a una altura de 1000 ft
neblina, llovizna,

TAF: FAKN 260900Z 2610/2618 VRB03KT 9999 BKN015 TX22/2613Z TN19/2618Z PROB30 TEMPO 2616/2618 5000 BR DZ BKN010

Observaciones y pronósticos meteorológicos de más de 4000 aeropuertos (mensajes METAR y TAF).

Los puntos amarillos y rojos representan las estaciones disponibles.

Ponga el ratón en el punto deseado para ver el nombre de la estación.

Haga clic para ver las observaciones y los pronósticos meteorológicos.

Para cambiar el mapa : haga clic en los botones verdes con una cruz de color negro para hacer un zoom, en el botón verde con un guión para alejar o en las flechas verdes para mapas adyacentes.


METAR-TAF: